sensor_id;sensor_type;location;lat;lon;timestamp;pressure;altitude;pressure_sealevel;temperature;humidity
80482;BME280;69797;43.864;21.410;2024-02-26T00:02:09;99297.31;;;12.86;64.89
80482;BME280;69797;43.864;21.410;2024-02-26T00:04:36;99315.56;;;12.97;65.04
80482;BME280;69797;43.864;21.410;2024-02-26T00:07:03;99319.38;;;12.96;65.22
80482;BME280;69797;43.864;21.410;2024-02-26T00:09:30;99306.91;;;12.83;65.48
80482;BME280;69797;43.864;21.410;2024-02-26T00:11:57;99326.25;;;12.93;65.20
80482;BME280;69797;43.864;21.410;2024-02-26T00:14:24;99331.69;;;12.88;65.35
80482;BME280;69797;43.864;21.410;2024-02-26T00:16:51;99325.75;;;12.75;65.43
80482;BME280;69797;43.864;21.410;2024-02-26T00:19:18;99297.78;;;12.56;65.90
80482;BME280;69797;43.864;21.410;2024-02-26T00:21:45;99307.47;;;12.63;65.72
80482;BME280;69797;43.864;21.410;2024-02-26T00:24:11;99316.88;;;12.67;65.96
80482;BME280;69797;43.864;21.410;2024-02-26T00:26:38;99321.31;;;12.68;66.44
80482;BME280;69797;43.864;21.410;2024-02-26T00:29:05;99320.47;;;12.68;66.47
80482;BME280;69797;43.864;21.410;2024-02-26T00:31:32;99299.13;;;12.53;66.30
80482;BME280;69797;43.864;21.410;2024-02-26T00:34:00;99314.34;;;12.61;66.94
80482;BME280;69797;43.864;21.410;2024-02-26T00:36:27;99319.56;;;12.62;66.68
80482;BME280;69797;43.864;21.410;2024-02-26T00:38:54;99303.59;;;12.59;67.27
80482;BME280;69797;43.864;21.410;2024-02-26T00:41:21;99298.94;;;12.60;66.27
80482;BME280;69797;43.864;21.410;2024-02-26T00:43:47;99269.31;;;12.40;66.11
80482;BME280;69797;43.864;21.410;2024-02-26T00:46:14;99294.53;;;12.59;66.57
80482;BME280;69797;43.864;21.410;2024-02-26T00:48:41;99304.75;;;12.63;66.90
80482;BME280;69797;43.864;21.410;2024-02-26T00:51:08;99316.56;;;12.64;66.99
80482;BME280;69797;43.864;21.410;2024-02-26T00:53:36;99304.75;;;12.63;66.88
80482;BME280;69797;43.864;21.410;2024-02-26T00:56:03;99302.81;;;12.64;67.66
80482;BME280;69797;43.864;21.410;2024-02-26T00:58:30;99300.63;;;12.61;68.05
80482;BME280;69797;43.864;21.410;2024-02-26T01:00:57;99294.78;;;12.57;67.76
80482;BME280;69797;43.864;21.410;2024-02-26T01:03:24;99291.47;;;12.55;67.79
80482;BME280;69797;43.864;21.410;2024-02-26T01:05:51;99294.25;;;12.60;68.14
80482;BME280;69797;43.864;21.410;2024-02-26T01:08:23;99283.72;;;12.52;67.48
80482;BME280;69797;43.864;21.410;2024-02-26T01:10:49;99259.66;;;12.37;67.19
80482;BME280;69797;43.864;21.410;2024-02-26T01:13:17;99284.88;;;12.56;67.34
80482;BME280;69797;43.864;21.410;2024-02-26T01:15:43;99277.28;;;12.41;67.13
80482;BME280;69797;43.864;21.410;2024-02-26T01:18:11;99303.22;;;12.51;66.91
80482;BME280;69797;43.864;21.410;2024-02-26T01:20:38;99305.72;;;12.52;67.10
80482;BME280;69797;43.864;21.410;2024-02-26T01:23:05;99285.72;;;12.35;67.52
80482;BME280;69797;43.864;21.410;2024-02-26T01:25:32;99311.16;;;12.47;67.70
80482;BME280;69797;43.864;21.410;2024-02-26T01:27:59;99285.91;;;12.28;67.79
80482;BME280;69797;43.864;21.410;2024-02-26T01:30:25;99300.34;;;12.40;68.45
80482;BME280;69797;43.864;21.410;2024-02-26T01:32:52;99289.56;;;12.34;68.49
80482;BME280;69797;43.864;21.410;2024-02-26T01:35:19;99292.31;;;12.34;68.77
80482;BME280;69797;43.864;21.410;2024-02-26T01:37:46;99285.16;;;12.33;68.56
80482;BME280;69797;43.864;21.410;2024-02-26T01:40:13;99286.22;;;12.32;69.28
80482;BME280;69797;43.864;21.410;2024-02-26T01:42:44;99282.09;;;12.29;68.78
80482;BME280;69797;43.864;21.410;2024-02-26T01:45:15;99284.38;;;12.37;68.53
80482;BME280;69797;43.864;21.410;2024-02-26T01:47:50;99282.97;;;12.35;69.23
80482;BME280;69797;43.864;21.410;2024-02-26T01:50:19;99280.81;;;12.37;68.06
80482;BME280;69797;43.864;21.410;2024-02-26T01:52:46;99290.50;;;12.44;67.83
80482;BME280;69797;43.864;21.410;2024-02-26T01:55:14;99296.91;;;12.50;67.88
80482;BME280;69797;43.864;21.410;2024-02-26T01:57:46;99273.72;;;12.41;67.86
80482;BME280;69797;43.864;21.410;2024-02-26T02:00:14;99272.56;;;12.37;67.83
80482;BME280;69797;43.864;21.410;2024-02-26T02:02:41;99271.44;;;12.33;68.43
80482;BME280;69797;43.864;21.410;2024-02-26T02:05:11;99279.66;;;12.33;69.54
80482;BME280;69797;43.864;21.410;2024-02-26T02:07:39;99284.00;;;12.29;71.64
80482;BME280;69797;43.864;21.410;2024-02-26T02:10:07;99271.66;;;12.09;71.37
80482;BME280;69797;43.864;21.410;2024-02-26T02:12:34;99269.09;;;12.03;71.51
80482;BME280;69797;43.864;21.410;2024-02-26T02:15:02;99271.28;;;12.00;72.50
80482;BME280;69797;43.864;21.410;2024-02-26T02:17:31;99272.34;;;11.99;71.58
80482;BME280;69797;43.864;21.410;2024-02-26T02:19:58;99279.34;;;12.07;73.18
80482;BME280;69797;43.864;21.410;2024-02-26T02:22:25;99266.03;;;11.99;71.62
80482;BME280;69797;43.864;21.410;2024-02-26T02:24:52;99280.50;;;12.11;72.43
80482;BME280;69797;43.864;21.410;2024-02-26T02:27:19;99277.47;;;12.13;70.71
80482;BME280;69797;43.864;21.410;2024-02-26T02:29:47;99281.00;;;12.08;72.73
80482;BME280;69797;43.864;21.410;2024-02-26T02:32:15;99297.28;;;12.15;72.78
80482;BME280;69797;43.864;21.410;2024-02-26T02:34:44;99275.88;;;11.95;72.94
80482;BME280;69797;43.864;21.410;2024-02-26T02:37:12;99301.72;;;11.99;73.51
80482;BME280;69797;43.864;21.410;2024-02-26T02:39:39;99307.91;;;11.89;74.36
80482;BME280;69797;43.864;21.410;2024-02-26T02:42:05;99319.09;;;11.71;75.52
80482;BME280;69797;43.864;21.410;2024-02-26T02:44:32;99313.81;;;11.64;76.83
80482;BME280;69797;43.864;21.410;2024-02-26T02:46:59;99316.94;;;11.56;77.10
80482;BME280;69797;43.864;21.410;2024-02-26T02:49:26;99313.97;;;11.41;77.52
80482;BME280;69797;43.864;21.410;2024-02-26T02:51:53;99314.56;;;11.43;77.92
80482;BME280;69797;43.864;21.410;2024-02-26T02:54:24;99305.34;;;11.32;77.48
80482;BME280;69797;43.864;21.410;2024-02-26T02:56:50;99306.81;;;11.40;77.75
80482;BME280;69797;43.864;21.410;2024-02-26T02:59:17;99323.94;;;11.47;78.06
80482;BME280;69797;43.864;21.410;2024-02-26T03:01:44;99310.63;;;11.39;77.94
80482;BME280;69797;43.864;21.410;2024-02-26T03:04:11;99312.06;;;11.41;77.94
80482;BME280;69797;43.864;21.410;2024-02-26T03:06:38;99308.22;;;11.42;77.93
80482;BME280;69797;43.864;21.410;2024-02-26T03:09:05;99291.69;;;11.37;77.74
80482;BME280;69797;43.864;21.410;2024-02-26T03:11:32;99313.38;;;11.56;78.11
80482;BME280;69797;43.864;21.410;2024-02-26T03:13:59;99316.47;;;11.59;77.99
80482;BME280;69797;43.864;21.410;2024-02-26T03:16:25;99305.97;;;11.56;77.64
80482;BME280;69797;43.864;21.410;2024-02-26T03:18:52;99306.63;;;11.63;76.26
80482;BME280;69797;43.864;21.410;2024-02-26T03:21:19;99313.72;;;11.76;75.39
80482;BME280;69797;43.864;21.410;2024-02-26T03:23:46;99305.72;;;11.74;75.36
80482;BME280;69797;43.864;21.410;2024-02-26T03:26:13;99319.53;;;11.80;75.30
80482;BME280;69797;43.864;21.410;2024-02-26T03:28:41;99327.25;;;11.83;76.00
80482;BME280;69797;43.864;21.410;2024-02-26T03:31:08;99327.25;;;11.83;76.57
80482;BME280;69797;43.864;21.410;2024-02-26T03:33:34;99328.69;;;11.85;76.00
80482;BME280;69797;43.864;21.410;2024-02-26T03:36:02;99328.94;;;11.84;75.87
80482;BME280;69797;43.864;21.410;2024-02-26T03:38:29;99319.19;;;11.76;76.16
80482;BME280;69797;43.864;21.410;2024-02-26T03:40:56;99327.50;;;11.81;76.03
80482;BME280;69797;43.864;21.410;2024-02-26T03:43:23;99307.47;;;11.64;75.89
80482;BME280;69797;43.864;21.410;2024-02-26T03:45:50;99320.13;;;11.65;76.10
80482;BME280;69797;43.864;21.410;2024-02-26T03:48:17;99319.28;;;11.64;76.20
80482;BME280;69797;43.864;21.410;2024-02-26T03:50:44;99337.47;;;11.70;75.70
80482;BME280;69797;43.864;21.410;2024-02-26T03:53:10;99324.25;;;11.67;75.77
80482;BME280;69797;43.864;21.410;2024-02-26T03:55:40;99339.22;;;11.76;75.92
80482;BME280;69797;43.864;21.410;2024-02-26T03:58:08;99311.63;;;11.66;75.28
80482;BME280;69797;43.864;21.410;2024-02-26T04:00:36;99338.94;;;11.90;74.85
80482;BME280;69797;43.864;21.410;2024-02-26T04:03:04;99334.59;;;11.94;73.90
80482;BME280;69797;43.864;21.410;2024-02-26T04:05:30;99316.69;;;11.91;73.19
80482;BME280;69797;43.864;21.410;2024-02-26T04:07:57;99326.59;;;11.92;72.60
80482;BME280;69797;43.864;21.410;2024-02-26T04:10:24;99316.50;;;11.81;72.21
80482;BME280;69797;43.864;21.410;2024-02-26T04:12:51;99326.78;;;11.86;72.00
80482;BME280;69797;43.864;21.410;2024-02-26T04:15:17;99331.69;;;11.84;72.76
80482;BME280;69797;43.864;21.410;2024-02-26T04:17:44;99305.81;;;11.63;72.71
80482;BME280;69797;43.864;21.410;2024-02-26T04:20:15;99338.72;;;11.80;72.96
80482;BME280;69797;43.864;21.410;2024-02-26T04:22:44;99342.56;;;11.79;73.73
80482;BME280;69797;43.864;21.410;2024-02-26T04:25:11;99327.53;;;11.64;73.94
80482;BME280;69797;43.864;21.410;2024-02-26T04:27:38;99324.94;;;11.58;73.43
80482;BME280;69797;43.864;21.410;2024-02-26T04:30:06;99332.16;;;11.64;73.08
80482;BME280;69797;43.864;21.410;2024-02-26T04:32:33;99345.72;;;11.70;72.56
80482;BME280;69797;43.864;21.410;2024-02-26T04:35:02;99319.47;;;11.58;72.39
80482;BME280;69797;43.864;21.410;2024-02-26T04:37:29;99358.88;;;11.68;72.12
80482;BME280;69797;43.864;21.410;2024-02-26T04:39:58;99352.78;;;11.66;72.19
80482;BME280;69797;43.864;21.410;2024-02-26T04:42:26;99335.31;;;11.56;71.70
80482;BME280;69797;43.864;21.410;2024-02-26T04:44:54;99335.75;;;11.47;72.18
80482;BME280;69797;43.864;21.410;2024-02-26T04:47:21;99345.63;;;11.48;72.06
80482;BME280;69797;43.864;21.410;2024-02-26T04:49:51;99332.00;;;11.37;72.18
80482;BME280;69797;43.864;21.410;2024-02-26T04:52:20;99359.09;;;11.50;72.56
80482;BME280;69797;43.864;21.410;2024-02-26T04:54:47;99332.81;;;11.37;72.48
80482;BME280;69797;43.864;21.410;2024-02-26T04:57:13;99332.97;;;11.31;72.64
80482;BME280;69797;43.864;21.410;2024-02-26T04:59:40;99326.81;;;11.23;72.93
80482;BME280;69797;43.864;21.410;2024-02-26T05:02:09;99331.81;;;11.26;73.01
80482;BME280;69797;43.864;21.410;2024-02-26T05:04:36;99341.31;;;11.36;73.44
80482;BME280;69797;43.864;21.410;2024-02-26T05:07:03;99324.09;;;11.23;73.96
80482;BME280;69797;43.864;21.410;2024-02-26T05:09:30;99350.03;;;11.33;73.72
80482;BME280;69797;43.864;21.410;2024-02-26T05:11:57;99340.03;;;11.26;73.64
80482;BME280;69797;43.864;21.410;2024-02-26T05:14:24;99345.59;;;11.32;73.31
80482;BME280;69797;43.864;21.410;2024-02-26T05:16:50;99322.50;;;11.11;72.32
80482;BME280;69797;43.864;21.410;2024-02-26T05:19:17;99351.59;;;11.28;72.44
80482;BME280;69797;43.864;21.410;2024-02-26T05:21:44;99346.50;;;11.20;72.40
80482;BME280;69797;43.864;21.410;2024-02-26T05:24:13;99320.88;;;10.98;72.59
80482;BME280;69797;43.864;21.410;2024-02-26T05:26:42;99332.69;;;10.98;72.71
80482;BME280;69797;43.864;21.410;2024-02-26T05:29:09;99344.91;;;11.08;72.93
80482;BME280;69797;43.864;21.410;2024-02-26T05:31:36;99336.34;;;11.04;73.46
80482;BME280;69797;43.864;21.410;2024-02-26T05:34:02;99327.69;;;10.95;73.88
80482;BME280;69797;43.864;21.410;2024-02-26T05:36:30;99334.59;;;10.98;73.53
80482;BME280;69797;43.864;21.410;2024-02-26T05:39:00;99328.63;;;11.01;73.44
80482;BME280;69797;43.864;21.410;2024-02-26T05:41:27;99347.75;;;11.13;73.67
80482;BME280;69797;43.864;21.410;2024-02-26T05:43:54;99342.25;;;11.13;73.99
80482;BME280;69797;43.864;21.410;2024-02-26T05:46:22;99347.59;;;11.19;73.20
80482;BME280;69797;43.864;21.410;2024-02-26T05:48:52;99356.97;;;11.23;72.78
80482;BME280;69797;43.864;21.410;2024-02-26T05:51:20;99349.44;;;11.31;72.71
80482;BME280;69797;43.864;21.410;2024-02-26T05:53:47;99331.91;;;11.32;72.17
80482;BME280;69797;43.864;21.410;2024-02-26T05:56:23;99355.19;;;11.46;72.18
80482;BME280;69797;43.864;21.410;2024-02-26T05:58:50;99361.31;;;11.53;71.86
80482;BME280;69797;43.864;21.410;2024-02-26T06:01:20;99345.63;;;11.65;71.28
80482;BME280;69797;43.864;21.410;2024-02-26T06:03:47;99358.53;;;11.98;70.66
80482;BME280;69797;43.864;21.410;2024-02-26T06:06:13;99354.56;;;12.28;69.49
80482;BME280;69797;43.864;21.410;2024-02-26T06:08:42;99351.91;;;12.55;68.29
80482;BME280;69797;43.864;21.410;2024-02-26T06:11:09;99360.91;;;12.94;67.72
80482;BME280;69797;43.864;21.410;2024-02-26T06:13:36;99363.53;;;13.33;66.54
80482;BME280;69797;43.864;21.410;2024-02-26T06:16:03;99360.00;;;13.70;66.64
80482;BME280;69797;43.864;21.410;2024-02-26T06:18:30;99353.63;;;14.02;65.32
80482;BME280;69797;43.864;21.410;2024-02-26T06:20:57;99359.16;;;14.49;64.54
80482;BME280;69797;43.864;21.410;2024-02-26T06:23:24;99369.28;;;14.91;63.21
80482;BME280;69797;43.864;21.410;2024-02-26T06:25:52;99377.09;;;15.25;61.37
80482;BME280;69797;43.864;21.410;2024-02-26T06:28:19;99361.97;;;15.48;62.12
80482;BME280;69797;43.864;21.410;2024-02-26T06:30:45;99355.38;;;15.85;60.73
80482;BME280;69797;43.864;21.410;2024-02-26T06:33:13;99362.75;;;16.35;60.11
80482;BME280;69797;43.864;21.410;2024-02-26T06:35:41;99352.09;;;16.83;59.27
80482;BME280;69797;43.864;21.410;2024-02-26T06:38:08;99367.88;;;17.37;58.29
80482;BME280;69797;43.864;21.410;2024-02-26T06:40:36;99358.66;;;17.86;58.46
80482;BME280;69797;43.864;21.410;2024-02-26T06:43:03;99373.53;;;18.54;57.23
80482;BME280;69797;43.864;21.410;2024-02-26T06:45:30;99385.06;;;19.09;56.45
80482;BME280;69797;43.864;21.410;2024-02-26T06:47:57;99384.97;;;19.57;55.48
80482;BME280;69797;43.864;21.410;2024-02-26T06:50:24;99393.03;;;20.10;53.86
80482;BME280;69797;43.864;21.410;2024-02-26T06:52:51;99375.16;;;20.44;54.53
80482;BME280;69797;43.864;21.410;2024-02-26T06:55:17;99366.56;;;20.87;53.12
80482;BME280;69797;43.864;21.410;2024-02-26T06:57:44;99385.06;;;21.32;53.36
80482;BME280;69797;43.864;21.410;2024-02-26T07:00:12;99387.00;;;21.82;52.81
80482;BME280;69797;43.864;21.410;2024-02-26T07:02:42;99388.97;;;22.26;52.25
80482;BME280;69797;43.864;21.410;2024-02-26T07:05:09;99380.50;;;22.71;51.99
80482;BME280;69797;43.864;21.410;2024-02-26T07:07:36;99380.03;;;23.18;50.42
80482;BME280;69797;43.864;21.410;2024-02-26T07:10:04;99380.75;;;23.76;51.23
80482;BME280;69797;43.864;21.410;2024-02-26T07:12:32;99376.72;;;24.29;49.83
80482;BME280;69797;43.864;21.410;2024-02-26T07:15:00;99371.06;;;24.55;48.37
80482;BME280;69797;43.864;21.410;2024-02-26T07:17:27;99395.41;;;24.63;45.20
80482;BME280;69797;43.864;21.410;2024-02-26T07:19:54;99394.56;;;24.71;48.40
80482;BME280;69797;43.864;21.410;2024-02-26T07:22:21;99381.69;;;25.08;47.91
80482;BME280;69797;43.864;21.410;2024-02-26T07:24:48;99367.28;;;25.48;47.75
80482;BME280;69797;43.864;21.410;2024-02-26T07:27:14;99379.41;;;25.82;47.27
80482;BME280;69797;43.864;21.410;2024-02-26T07:29:44;99363.22;;;26.00;45.03
80482;BME280;69797;43.864;21.410;2024-02-26T07:32:11;99370.25;;;26.39;38.21
80482;BME280;69797;43.864;21.410;2024-02-26T07:34:38;99369.03;;;26.86;43.97
80482;BME280;69797;43.864;21.410;2024-02-26T07:37:08;99375.84;;;27.34;44.77
80482;BME280;69797;43.864;21.410;2024-02-26T07:39:35;99386.19;;;27.82;45.64
80482;BME280;69797;43.864;21.410;2024-02-26T07:42:03;99370.66;;;28.44;44.62
80482;BME280;69797;43.864;21.410;2024-02-26T07:44:30;99379.44;;;29.03;43.42
80482;BME280;69797;43.864;21.410;2024-02-26T07:46:57;99363.00;;;29.24;42.46
80482;BME280;69797;43.864;21.410;2024-02-26T07:49:24;99374.75;;;29.61;41.39
80482;BME280;69797;43.864;21.410;2024-02-26T07:51:51;99367.84;;;29.98;42.18
80482;BME280;69797;43.864;21.410;2024-02-26T07:54:18;99378.13;;;30.25;41.85
80482;BME280;69797;43.864;21.410;2024-02-26T07:56:46;99373.94;;;30.62;38.76
80482;BME280;69797;43.864;21.410;2024-02-26T07:59:13;99368.41;;;31.15;39.38
80482;BME280;69797;43.864;21.410;2024-02-26T08:01:40;99366.22;;;31.58;39.55
80482;BME280;69797;43.864;21.410;2024-02-26T08:04:08;99360.66;;;31.95;35.42
80482;BME280;69797;43.864;21.410;2024-02-26T08:06:35;99351.22;;;32.17;38.22
80482;BME280;69797;43.864;21.410;2024-02-26T08:09:04;99372.97;;;32.43;37.31
80482;BME280;69797;43.864;21.410;2024-02-26T08:11:31;99367.28;;;31.76;34.93
80482;BME280;69797;43.864;21.410;2024-02-26T08:13:58;99354.88;;;30.78;33.93
80482;BME280;69797;43.864;21.410;2024-02-26T08:16:25;99370.03;;;29.85;37.45
80482;BME280;69797;43.864;21.410;2024-02-26T08:18:53;99374.47;;;29.31;36.90
80482;BME280;69797;43.864;21.410;2024-02-26T08:21:20;99372.22;;;28.89;36.93
80482;BME280;69797;43.864;21.410;2024-02-26T08:23:47;99368.88;;;28.24;35.29
80482;BME280;69797;43.864;21.410;2024-02-26T08:26:14;99363.47;;;28.03;36.22
80482;BME280;69797;43.864;21.410;2024-02-26T08:28:41;99367.56;;;27.13;32.98
80482;BME280;69797;43.864;21.410;2024-02-26T08:31:07;99361.00;;;25.51;33.69
80482;BME280;69797;43.864;21.410;2024-02-26T08:33:34;99360.84;;;24.59;33.51
80482;BME280;69797;43.864;21.410;2024-02-26T08:36:06;99383.47;;;24.28;34.59
80482;BME280;69797;43.864;21.410;2024-02-26T08:38:33;99342.41;;;23.93;35.25
80482;BME280;69797;43.864;21.410;2024-02-26T08:41:02;99359.56;;;24.39;36.14
80482;BME280;69797;43.864;21.410;2024-02-26T08:43:29;99335.63;;;24.97;36.68
80482;BME280;69797;43.864;21.410;2024-02-26T08:45:56;99344.72;;;25.66;34.68
80482;BME280;69797;43.864;21.410;2024-02-26T08:48:24;99360.25;;;26.17;35.48
80482;BME280;69797;43.864;21.410;2024-02-26T08:50:51;99349.72;;;26.60;34.65
80482;BME280;69797;43.864;21.410;2024-02-26T08:53:17;99335.31;;;26.61;34.69
80482;BME280;69797;43.864;21.410;2024-02-26T08:55:56;99325.34;;;27.00;33.89
80482;BME280;69797;43.864;21.410;2024-02-26T08:58:23;99351.94;;;27.03;33.46
80482;BME280;69797;43.864;21.410;2024-02-26T09:00:50;99337.50;;;25.77;31.07
80482;BME280;69797;43.864;21.410;2024-02-26T09:03:17;99354.22;;;25.02;33.45
80482;BME280;69797;43.864;21.410;2024-02-26T09:05:44;99347.41;;;24.44;34.15
80482;BME280;69797;43.864;21.410;2024-02-26T09:08:11;99364.59;;;23.64;35.17
80482;BME280;69797;43.864;21.410;2024-02-26T09:10:38;99352.44;;;22.77;36.80
80482;BME280;69797;43.864;21.410;2024-02-26T09:13:05;99356.38;;;21.91;38.10
80482;BME280;69797;43.864;21.410;2024-02-26T09:15:32;99358.88;;;21.06;39.40
80482;BME280;69797;43.864;21.410;2024-02-26T09:17:59;99367.28;;;20.18;40.74
80482;BME280;69797;43.864;21.410;2024-02-26T09:20:26;99341.34;;;19.57;41.34
80482;BME280;69797;43.864;21.410;2024-02-26T09:22:53;99341.06;;;19.02;42.75
80482;BME280;69797;43.864;21.410;2024-02-26T09:25:20;99358.16;;;18.37;43.75
80482;BME280;69797;43.864;21.410;2024-02-26T09:27:47;99344.91;;;17.71;45.88
80482;BME280;69797;43.864;21.410;2024-02-26T09:30:14;99336.41;;;17.23;46.06
80482;BME280;69797;43.864;21.410;2024-02-26T09:32:41;99339.06;;;16.94;47.29
80482;BME280;69797;43.864;21.410;2024-02-26T09:35:08;99349.91;;;16.85;48.68
80482;BME280;69797;43.864;21.410;2024-02-26T09:37:35;99356.00;;;16.82;48.61
80482;BME280;69797;43.864;21.410;2024-02-26T09:40:04;99357.69;;;16.68;49.13
80482;BME280;69797;43.864;21.410;2024-02-26T09:42:34;99339.47;;;16.57;48.43
80482;BME280;69797;43.864;21.410;2024-02-26T09:45:05;99349.97;;;16.60;49.46
80482;BME280;69797;43.864;21.410;2024-02-26T09:47:36;99315.19;;;16.43;49.13
80482;BME280;69797;43.864;21.410;2024-02-26T09:50:05;99327.56;;;16.61;49.23
80482;BME280;69797;43.864;21.410;2024-02-26T09:52:34;99336.38;;;16.73;48.74
80482;BME280;69797;43.864;21.410;2024-02-26T09:55:04;99330.31;;;16.76;48.18
80482;BME280;69797;43.864;21.410;2024-02-26T09:57:31;99339.69;;;16.81;48.38
80482;BME280;69797;43.864;21.410;2024-02-26T09:59:59;99320.03;;;16.72;49.32
80482;BME280;69797;43.864;21.410;2024-02-26T10:02:31;99334.94;;;16.86;48.42
80482;BME280;69797;43.864;21.410;2024-02-26T10:05:02;99324.47;;;16.78;48.16
80482;BME280;69797;43.864;21.410;2024-02-26T10:07:35;99336.63;;;16.82;48.15
80482;BME280;69797;43.864;21.410;2024-02-26T10:10:03;99329.47;;;16.71;48.78
80482;BME280;69797;43.864;21.410;2024-02-26T10:12:30;99345.19;;;16.86;48.99
80482;BME280;69797;43.864;21.410;2024-02-26T10:14:58;99340.22;;;16.88;48.55
80482;BME280;69797;43.864;21.410;2024-02-26T10:17:25;99330.56;;;16.75;48.96
80482;BME280;69797;43.864;21.410;2024-02-26T10:19:52;99321.47;;;16.74;48.81
80482;BME280;69797;43.864;21.410;2024-02-26T10:22:23;99337.75;;;16.76;49.63
80482;BME280;69797;43.864;21.410;2024-02-26T10:24:50;99319.81;;;16.63;49.44
80482;BME280;69797;43.864;21.410;2024-02-26T10:27:18;99320.94;;;16.62;49.67
80482;BME280;69797;43.864;21.410;2024-02-26T10:29:46;99327.28;;;16.63;49.34
80482;BME280;69797;43.864;21.410;2024-02-26T10:32:13;99319.53;;;16.70;50.01
80482;BME280;69797;43.864;21.410;2024-02-26T10:34:40;99309.63;;;16.53;50.42
80482;BME280;69797;43.864;21.410;2024-02-26T10:37:09;99287.53;;;16.43;50.15
80482;BME280;69797;43.864;21.410;2024-02-26T10:39:36;99290.22;;;16.64;50.46
80482;BME280;69797;43.864;21.410;2024-02-26T10:42:04;99302.25;;;16.93;49.31
80482;BME280;69797;43.864;21.410;2024-02-26T10:44:36;99285.66;;;16.98;49.26
80482;BME280;69797;43.864;21.410;2024-02-26T10:47:03;99290.44;;;17.27;48.80
80482;BME280;69797;43.864;21.410;2024-02-26T10:49:30;99285.66;;;17.38;46.93
80482;BME280;69797;43.864;21.410;2024-02-26T10:51:57;99281.59;;;17.59;45.03
80482;BME280;69797;43.864;21.410;2024-02-26T10:54:26;99287.75;;;17.85;44.05
80482;BME280;69797;43.864;21.410;2024-02-26T10:56:57;99261.66;;;17.91;44.92
80482;BME280;69797;43.864;21.410;2024-02-26T10:59:26;99285.06;;;18.04;46.61
80482;BME280;69797;43.864;21.410;2024-02-26T11:01:54;99270.38;;;18.04;43.80
80482;BME280;69797;43.864;21.410;2024-02-26T11:04:22;99289.75;;;18.09;45.54
80482;BME280;69797;43.864;21.410;2024-02-26T11:06:53;99241.06;;;17.68;46.56
80482;BME280;69797;43.864;21.410;2024-02-26T11:09:22;99243.91;;;17.58;46.90
80482;BME280;69797;43.864;21.410;2024-02-26T11:11:50;99257.03;;;17.47;47.52
80482;BME280;69797;43.864;21.410;2024-02-26T11:14:21;99253.25;;;17.38;48.10
80482;BME280;69797;43.864;21.410;2024-02-26T11:16:49;99249.88;;;17.12;47.90
80482;BME280;69797;43.864;21.410;2024-02-26T11:19:16;99271.16;;;17.12;48.35
80482;BME280;69797;43.864;21.410;2024-02-26T11:21:44;99263.22;;;17.00;49.02
80482;BME280;69797;43.864;21.410;2024-02-26T11:24:14;99243.59;;;17.01;48.63
80482;BME280;69797;43.864;21.410;2024-02-26T11:26:46;99260.09;;;17.12;48.67
80482;BME280;69797;43.864;21.410;2024-02-26T11:29:18;99233.59;;;17.06;48.73
80482;BME280;69797;43.864;21.410;2024-02-26T11:31:48;99265.81;;;17.25;48.14
80482;BME280;69797;43.864;21.410;2024-02-26T11:34:16;99257.25;;;17.22;48.29
80482;BME280;69797;43.864;21.410;2024-02-26T11:36:44;99242.97;;;17.05;48.30
80482;BME280;69797;43.864;21.410;2024-02-26T11:39:12;99262.00;;;17.16;48.50
80482;BME280;69797;43.864;21.410;2024-02-26T11:41:41;99263.25;;;17.34;48.21
80482;BME280;69797;43.864;21.410;2024-02-26T11:44:08;99269.88;;;17.38;48.07
80482;BME280;69797;43.864;21.410;2024-02-26T11:46:40;99272.63;;;17.38;48.65
80482;BME280;69797;43.864;21.410;2024-02-26T11:51:56;99250.91;;;17.50;48.41
80482;BME280;69797;43.864;21.410;2024-02-26T11:54:47;99268.56;;;17.60;47.70
80482;BME280;69797;43.864;21.410;2024-02-26T11:57:38;99291.31;;;17.57;47.87
80482;BME280;69797;43.864;21.410;2024-02-26T12:00:13;99248.00;;;17.37;48.76
80482;BME280;69797;43.864;21.410;2024-02-26T12:02:47;99275.41;;;17.38;48.72
80482;BME280;69797;43.864;21.410;2024-02-26T12:05:17;99273.28;;;17.25;48.89
80482;BME280;69797;43.864;21.410;2024-02-26T12:07:49;99264.53;;;17.13;49.16
80482;BME280;69797;43.864;21.410;2024-02-26T12:10:27;99229.06;;;17.20;48.93
80482;BME280;69797;43.864;21.410;2024-02-26T12:15:35;99237.03;;;17.26;49.30
80482;BME280;69797;43.864;21.410;2024-02-26T12:18:04;99242.59;;;17.21;49.12
80482;BME280;69797;43.864;21.410;2024-02-26T12:20:32;99241.47;;;17.22;48.76
80482;BME280;69797;43.864;21.410;2024-02-26T12:22:59;99231.19;;;17.28;49.04
80482;BME280;69797;43.864;21.410;2024-02-26T12:25:28;99267.19;;;17.28;48.58
80482;BME280;69797;43.864;21.410;2024-02-26T12:27:55;99206.94;;;17.15;48.79
80482;BME280;69797;43.864;21.410;2024-02-26T12:30:23;99236.09;;;17.36;49.00
80482;BME280;69797;43.864;21.410;2024-02-26T12:32:51;99232.56;;;17.31;49.01
80482;BME280;69797;43.864;21.410;2024-02-26T12:35:19;99228.13;;;17.30;48.75
80482;BME280;69797;43.864;21.410;2024-02-26T12:37:46;99232.31;;;17.27;49.12
80482;BME280;69797;43.864;21.410;2024-02-26T12:40:13;99207.41;;;17.27;48.85
80482;BME280;69797;43.864;21.410;2024-02-26T12:42:41;99180.47;;;17.03;48.60
80482;BME280;69797;43.864;21.410;2024-02-26T12:45:10;99203.81;;;17.26;48.86
80482;BME280;69797;43.864;21.410;2024-02-26T12:47:38;99187.22;;;17.21;48.56
80482;BME280;69797;43.864;21.410;2024-02-26T12:50:07;99212.69;;;17.23;48.31
80482;BME280;69797;43.864;21.410;2024-02-26T12:52:39;99238.50;;;17.48;48.22
80482;BME280;69797;43.864;21.410;2024-02-26T12:55:06;99203.38;;;17.43;47.89
80482;BME280;69797;43.864;21.410;2024-02-26T12:57:38;99214.19;;;17.40;47.93
80482;BME280;69797;43.864;21.410;2024-02-26T13:00:06;99226.69;;;17.37;47.76